Muzaffarabad Weather



Muzaffarabad's Current Weather

Temprature 27.5o scattered clouds

scattered clouds

Rain: 0 %

Min Temprature27.5o
Max Temprature27.5o
Humidity48
Wind Speed1.24 m/h
Sun Rise04:59:16
Sun Set19:21:49
Current Time: 05-Jul-2020 18:42:00
Lat/Lon: 34.37, 73.47




Muzaffarabad's Geo Location



Muzaffarabad's Weather Forecast

Time Overall Temp Min Temp Max Temp Humidity Wind Speed Rain
05-Jul-2020 (Sun)
20:00:00 scattered clouds 28.160 25.360 28.160 44 1.84 m/h 0 %
23:00:00 light rain 25.190 23.640 25.190 48 2.11 m/h 25 %
06-Jul-2020 (Mon)
02:00:00 clear sky 23.270 22.750 23.270 46 2.16 m/h 0 %
05:00:00 clear sky 22.340 22.270 22.340 41 2.37 m/h 0 %
08:00:00 clear sky 30.240 30.240 30.240 30 0.57 m/h 0 %
11:00:00 clear sky 34.930 34.930 34.930 22 1.88 m/h 0 %
14:00:00 clear sky 36.180 36.180 36.180 21 2.58 m/h 0 %
17:00:00 scattered clouds 33.710 33.710 33.710 28 1.46 m/h 0 %
20:00:00 clear sky 28.180 28.180 28.180 36 1.45 m/h 0 %
23:00:00 few clouds 26.190 26.190 26.190 38 2.09 m/h 0 %
07-Jul-2020 (Tue)
02:00:00 broken clouds 25.670 25.670 25.670 37 2.35 m/h 0 %
05:00:00 scattered clouds 24.720 24.720 24.720 38 2.66 m/h 0 %
08:00:00 clear sky 33.010 33.010 33.010 28 0.95 m/h 0 %
11:00:00 clear sky 37.350 37.350 37.350 19 1.82 m/h 0 %
14:00:00 few clouds 37.230 37.230 37.230 19 3.03 m/h 0 %
17:00:00 few clouds 37.100 37.100 37.100 19 1.28 m/h 0 %
20:00:00 clear sky 29.920 29.920 29.920 29 1.4 m/h 0 %
23:00:00 clear sky 27.740 27.740 27.740 31 2.57 m/h 0 %
08-Jul-2020 (Wed)
02:00:00 few clouds 27.350 27.350 27.350 32 2.56 m/h 0 %
05:00:00 scattered clouds 26.380 26.380 26.380 33 2.7 m/h 0 %
08:00:00 clear sky 34.040 34.040 34.040 26 0.92 m/h 0 %
11:00:00 clear sky 37.530 37.530 37.530 20 2.61 m/h 0 %
14:00:00 clear sky 38.910 38.910 38.910 18 2.65 m/h 0 %
17:00:00 clear sky 38.000 38.000 38.000 20 1.97 m/h 0 %
20:00:00 clear sky 30.720 30.720 30.720 32 0.48 m/h 0 %
23:00:00 few clouds 28.690 28.690 28.690 36 2.21 m/h 0 %
09-Jul-2020 (Thu)
02:00:00 scattered clouds 27.660 27.660 27.660 39 2.34 m/h 0 %
05:00:00 broken clouds 26.590 26.590 26.590 41 1.99 m/h 0 %
08:00:00 light rain 32.760 32.760 32.760 34 1.01 m/h 18 %
11:00:00 few clouds 37.230 37.230 37.230 25 2.42 m/h 0 %
14:00:00 scattered clouds 38.010 38.010 38.010 25 3.46 m/h 0 %
17:00:00 light rain 34.880 34.880 34.880 34 1.55 m/h 60 %
20:00:00 moderate rain 26.550 26.550 26.550 57 3.69 m/h 302 %
23:00:00 moderate rain 24.870 24.870 24.870 58 2.66 m/h 376 %
10-Jul-2020 (Fri)
02:00:00 light rain 23.800 23.800 23.800 56 2.47 m/h 69 %
05:00:00 light rain 23.990 23.990 23.990 52 1.83 m/h 36 %
08:00:00 few clouds 30.430 30.430 30.430 38 0.64 m/h 0 %
11:00:00 light rain 34.720 34.720 34.720 31 2.39 m/h 28 %
14:00:00 light rain 36.090 36.090 36.090 29 2.58 m/h 24 %
17:00:00 clear sky 35.380 35.380 35.380 30 2.2 m/h 0 %

Famous Cities (60)